createdAt,value
2022-08-23T00:02:30.377Z,77.00
2022-08-23T00:07:38.450Z,77.30
2022-08-23T00:12:43.948Z,77.60
2022-08-23T00:17:47.958Z,77.80
2022-08-23T00:22:53.379Z,78.10
2022-08-23T00:27:57.219Z,78.30
2022-08-23T00:33:01.915Z,78.50
2022-08-23T00:38:34.012Z,78.80
2022-08-23T00:43:52.997Z,79.10
2022-08-23T00:48:58.360Z,79.30
2022-08-23T00:54:05.124Z,79.50
2022-08-23T00:59:10.647Z,79.80
2022-08-23T01:04:15.919Z,80.00
2022-08-23T01:09:22.692Z,79.70
2022-08-23T01:14:27.920Z,79.80
2022-08-23T01:19:36.483Z,80.00
2022-08-23T01:25:08.200Z,80.10
2022-08-23T01:30:10.224Z,79.70
2022-08-23T01:35:14.383Z,80.10
2022-08-23T01:40:20.004Z,80.40
2022-08-23T01:45:24.200Z,80.50
2022-08-23T01:50:30.404Z,80.80
2022-08-23T01:55:36.491Z,81.10
2022-08-23T02:00:43.018Z,81.30
2022-08-23T02:05:50.070Z,81.50
2022-08-23T02:10:55.676Z,81.40
2022-08-23T02:16:01.735Z,81.70
2022-08-23T02:26:17.515Z,82.20
2022-08-23T02:31:23.221Z,82.40
2022-08-23T02:36:29.835Z,82.60
2022-08-23T02:41:37.859Z,83.20
2022-08-23T02:46:45.516Z,83.30
2022-08-23T02:51:50.933Z,83.60
2022-08-23T02:56:56.415Z,83.80
2022-08-23T03:02:00.604Z,83.80
2022-08-23T03:07:09.686Z,84.30
2022-08-23T03:12:16.447Z,84.60
2022-08-23T03:17:25.807Z,84.90
2022-08-23T03:22:29.724Z,85.00
2022-08-23T03:27:38.357Z,84.90
2022-08-23T03:32:49.261Z,85.20
2022-08-23T03:37:55.347Z,85.50
2022-08-23T03:43:02.450Z,85.50
2022-08-23T03:48:07.594Z,86.40
2022-08-23T03:53:13.176Z,85.80
2022-08-23T03:58:21.671Z,86.10
2022-08-23T04:03:25.741Z,86.30
2022-08-23T04:08:48.147Z,86.50
2022-08-23T04:13:53.521Z,86.60
2022-08-23T04:18:57.842Z,86.90
2022-08-23T04:24:04.892Z,86.90
2022-08-23T04:29:11.692Z,87.30
2022-08-23T04:34:29.107Z,87.30
2022-08-23T04:39:54.053Z,87.40
2022-08-23T04:45:01.784Z,87.70
2022-08-23T04:50:06.839Z,88.00
2022-08-23T04:55:10.973Z,88.10
2022-08-23T05:00:30.105Z,87.80
2022-08-23T05:05:35.089Z,87.60
2022-08-23T05:10:40.146Z,87.80
2022-08-23T05:15:45.777Z,88.10
2022-08-23T05:20:50.061Z,88.50
2022-08-23T05:25:57.184Z,88.80
2022-08-23T05:31:11.976Z,89.00
2022-08-23T05:36:23.349Z,88.80
2022-08-23T05:41:33.402Z,89.00
2022-08-23T05:46:46.340Z,89.10
2022-08-23T05:51:59.246Z,89.80
2022-08-23T05:57:07.603Z,90.00
2022-08-23T06:02:12.766Z,90.10
2022-08-23T06:07:16.784Z,90.20
2022-08-23T06:12:20.472Z,90.20
2022-08-23T06:17:27.291Z,90.30
2022-08-23T06:22:31.541Z,90.30
2022-08-23T06:27:35.376Z,90.20
2022-08-23T06:32:40.849Z,90.20
2022-08-23T06:38:04.076Z,90.20
2022-08-23T06:43:25.885Z,90.20
2022-08-23T06:48:46.686Z,90.20
2022-08-23T06:53:50.935Z,90.20
2022-08-23T06:59:27.197Z,90.00
2022-08-23T07:04:58.293Z,90.10
2022-08-23T07:10:15.951Z,90.20
2022-08-23T07:15:20.806Z,90.00
2022-08-23T07:20:26.409Z,90.00
2022-08-23T07:25:30.423Z,90.00
2022-08-23T07:30:41.062Z,89.90
2022-08-23T07:35:51.574Z,90.00
2022-08-23T07:40:57.116Z,90.00
2022-08-23T07:46:04.240Z,89.80
2022-08-23T07:51:13.313Z,89.60
2022-08-23T07:56:19.373Z,89.90
2022-08-23T08:01:46.465Z,89.80
2022-08-23T08:07:17.173Z,89.70
2022-08-23T08:12:21.010Z,89.70
2022-08-23T08:17:27.813Z,89.70
2022-08-23T08:23:05.699Z,89.60
2022-08-23T08:28:28.134Z,89.50
2022-08-23T08:33:34.326Z,89.60
2022-08-23T08:38:48.167Z,89.40
2022-08-23T08:44:04.534Z,89.00
2022-08-23T08:49:13.456Z,89.20
2022-08-23T08:54:23.456Z,89.80
2022-08-23T08:59:33.623Z,89.50
2022-08-23T09:04:39.000Z,88.10
2022-08-23T09:10:08.699Z,88.10
2022-08-23T09:15:26.046Z,87.90
2022-08-23T09:20:34.853Z,87.80
2022-08-23T09:25:41.963Z,87.10
2022-08-23T09:30:55.158Z,86.60
2022-08-23T09:36:08.639Z,85.60
2022-08-23T09:41:23.520Z,85.50
2022-08-23T09:46:33.371Z,83.60
2022-08-23T09:51:41.587Z,81.70
2022-08-23T09:56:57.544Z,80.90
2022-08-23T10:02:02.941Z,78.50
2022-08-23T10:07:25.458Z,76.10
2022-08-23T10:12:33.046Z,76.30
2022-08-23T10:17:43.949Z,73.50
2022-08-23T10:22:57.111Z,73.20
2022-08-23T10:28:31.359Z,69.50
2022-08-23T10:33:47.747Z,70.20
2022-08-23T10:38:57.951Z,69.50
2022-08-23T10:44:21.215Z,70.00
2022-08-23T10:49:26.611Z,69.60
2022-08-23T10:54:38.580Z,69.80
2022-08-23T10:59:47.957Z,69.20
2022-08-23T11:04:57.666Z,69.10
2022-08-23T11:10:16.822Z,68.80
2022-08-23T11:15:44.545Z,69.30
2022-08-23T11:21:10.805Z,69.00
2022-08-23T11:27:06.288Z,68.50
2022-08-23T11:32:29.995Z,68.50
2022-08-23T11:38:05.147Z,68.10
2022-08-23T11:43:31.654Z,68.10
2022-08-23T11:48:43.823Z,68.40
2022-08-23T11:54:23.143Z,68.10
2022-08-23T11:59:45.866Z,67.90
2022-08-23T12:04:55.606Z,68.20
2022-08-23T12:09:59.408Z,67.90
2022-08-23T12:15:06.939Z,67.60
2022-08-23T12:20:22.131Z,67.70
2022-08-23T12:25:30.372Z,67.30
2022-08-23T12:30:42.905Z,67.50
2022-08-23T12:35:55.982Z,67.60
2022-08-23T12:41:00.197Z,67.30
2022-08-23T12:46:04.284Z,67.20
2022-08-23T12:51:14.084Z,67.30
2022-08-23T12:56:21.071Z,67.20
2022-08-23T13:01:35.847Z,66.80
2022-08-23T13:06:45.593Z,67.10
2022-08-23T13:11:49.968Z,67.40
2022-08-23T13:16:53.745Z,67.20
2022-08-23T13:22:22.181Z,68.00
2022-08-23T13:27:29.070Z,67.70
2022-08-23T13:32:43.029Z,67.30
2022-08-23T13:37:48.405Z,67.30
2022-08-23T13:42:56.949Z,67.40
2022-08-23T13:48:04.535Z,67.20
2022-08-23T13:53:17.497Z,67.30
2022-08-23T13:58:29.117Z,67.10
2022-08-23T14:03:32.980Z,67.60
2022-08-23T14:08:40.077Z,67.70
2022-08-23T14:13:47.087Z,67.70
2022-08-23T14:24:16.158Z,67.80
2022-08-23T14:29:19.982Z,67.90
2022-08-23T14:34:27.754Z,68.00
2022-08-23T14:39:32.928Z,68.10
2022-08-23T14:44:36.902Z,68.10
2022-08-23T14:49:40.788Z,68.00
2022-08-23T14:54:45.888Z,68.00
2022-08-23T14:59:50.172Z,68.70
2022-08-23T15:04:54.014Z,68.00
2022-08-23T15:09:59.130Z,67.90
2022-08-23T15:15:03.027Z,68.00
2022-08-23T15:20:08.033Z,68.00
2022-08-23T15:25:13.928Z,68.20
2022-08-23T15:30:18.271Z,68.10
2022-08-23T15:35:22.405Z,68.20
2022-08-23T15:40:27.574Z,68.20
2022-08-23T15:45:32.241Z,68.30
2022-08-23T15:50:36.064Z,68.30
2022-08-23T15:55:43.328Z,68.40
2022-08-23T16:00:48.085Z,68.20
2022-08-23T16:05:54.793Z,68.20
2022-08-23T16:11:01.906Z,68.30
2022-08-23T16:16:06.120Z,68.00
2022-08-23T16:21:09.932Z,68.10
2022-08-23T16:26:17.866Z,68.20
2022-08-23T16:31:38.536Z,68.00
2022-08-23T16:36:45.857Z,67.80
2022-08-23T16:41:51.384Z,67.80
2022-08-23T16:46:56.021Z,67.70
2022-08-23T16:52:00.511Z,67.60
2022-08-23T16:57:06.010Z,67.30
2022-08-23T17:02:20.739Z,67.50
2022-08-23T17:07:24.902Z,67.60
2022-08-23T17:12:31.315Z,67.30
2022-08-23T17:17:35.682Z,67.40
2022-08-23T17:22:39.536Z,67.50
2022-08-23T17:27:50.420Z,67.70
2022-08-23T17:32:54.482Z,67.90
2022-08-23T17:37:58.309Z,68.00
2022-08-23T17:43:05.694Z,68.00
2022-08-23T17:48:09.284Z,68.10
2022-08-23T17:53:14.420Z,68.60
2022-08-23T17:58:20.001Z,68.70
2022-08-23T18:03:23.677Z,69.10
2022-08-23T18:08:27.554Z,69.30
2022-08-23T18:13:32.795Z,69.70
2022-08-23T18:18:36.695Z,70.10
2022-08-23T18:23:40.696Z,70.50
2022-08-23T18:28:45.731Z,70.80
2022-08-23T18:33:49.478Z,71.30
2022-08-23T18:38:53.296Z,71.30
2022-08-23T18:43:58.753Z,71.80
2022-08-23T18:49:02.619Z,72.10
2022-08-23T18:54:06.794Z,72.50
2022-08-23T18:59:12.942Z,72.80
2022-08-23T19:04:17.134Z,73.30
2022-08-23T19:09:21.067Z,73.60
2022-08-23T19:14:26.204Z,74.00
2022-08-23T19:19:30.072Z,74.50
2022-08-23T19:24:33.888Z,74.80
2022-08-23T19:29:39.122Z,75.30
2022-08-23T19:34:43.242Z,75.90
2022-08-23T19:39:46.964Z,76.10
2022-08-23T19:44:52.191Z,76.60
2022-08-23T19:49:56.488Z,77.00
2022-08-23T19:55:05.544Z,77.30
2022-08-23T20:00:19.414Z,77.80
2022-08-23T20:05:23.958Z,78.20
2022-08-23T20:10:27.920Z,79.00
2022-08-23T20:15:33.285Z,79.10
2022-08-23T20:20:36.947Z,79.60
2022-08-23T20:25:40.714Z,80.00
2022-08-23T20:30:45.822Z,80.70
2022-08-23T20:35:49.719Z,81.30
2022-08-23T20:40:53.569Z,81.80
2022-08-23T20:52:24.886Z,82.90
2022-08-23T20:57:31.963Z,84.20
2022-08-23T21:02:42.369Z,84.00
2022-08-23T21:07:47.506Z,84.70
2022-08-23T21:12:51.416Z,85.30
2022-08-23T21:17:55.093Z,85.80
2022-08-23T21:23:00.363Z,86.30
2022-08-23T21:28:04.752Z,87.30
2022-08-23T21:33:08.627Z,87.50
2022-08-23T21:38:13.917Z,88.10
2022-08-23T21:43:23.232Z,88.60
2022-08-23T21:48:27.009Z,88.90
2022-08-23T21:53:32.144Z,89.60
2022-08-23T21:58:35.898Z,90.10
2022-08-23T22:03:39.777Z,90.30
2022-08-23T22:08:46.012Z,90.60
2022-08-23T22:13:49.646Z,90.70
2022-08-23T22:18:53.857Z,90.90
2022-08-23T22:23:59.437Z,91.10
2022-08-23T22:29:03.253Z,91.20
2022-08-23T22:34:11.596Z,91.50
2022-08-23T22:39:17.569Z,91.60
2022-08-23T22:44:21.324Z,91.70
2022-08-23T22:49:26.268Z,91.90
2022-08-23T22:54:31.548Z,92.00
2022-08-23T22:59:35.305Z,92.10
2022-08-23T23:04:39.516Z,92.30
2022-08-23T23:09:44.869Z,92.50
2022-08-23T23:14:48.752Z,92.60
2022-08-23T23:20:09.963Z,92.70
2022-08-23T23:25:15.190Z,92.70
2022-08-23T23:30:19.153Z,92.80
2022-08-23T23:35:23.715Z,92.90
2022-08-23T23:40:29.625Z,93.00
2022-08-23T23:45:33.402Z,93.20
2022-08-23T23:50:37.719Z,93.30
2022-08-23T23:55:48.715Z,93.40
